Time;durP1;ratioP1;P1;durP2;ratioP2;P2;SDS_P1;SDS_P2;PMS_P1;PMS_P2;Temp;Humidity;BMP_temperature;BMP_pressure;BME280_temperature;BME280_humidity;BME280_pressure;Samples;Min_cycle;Max_cycle;Signal;HPM_P1;HPM_P2
2022/07/31 00:00:08;;;;;;;1.98;1.60;;;;;;;23.20;38.53;97485.50;4992754;28;20038;-75
2022/07/31 00:02:34;;;;;;;1.98;1.52;;;;;;;23.16;38.76;97485.38;5004342;28;20112;-74
2022/07/31 00:04:59;;;;;;;2.28;1.73;;;;;;;23.15;39.65;97483.03;4994107;28;20183;-75
2022/07/31 00:07:25;;;;;;;2.25;1.63;;;;;;;23.11;39.48;97495.41;4994862;28;20404;-75
2022/07/31 00:09:50;;;;;;;3.63;1.67;;;;;;;23.04;39.59;97484.47;5011014;28;20113;-75
2022/07/31 00:12:16;;;;;;;1.30;1.20;;;;;;;22.98;39.94;97484.63;5011991;28;20057;-75
2022/07/31 00:14:41;;;;;;;2.80;1.58;;;;;;;22.90;39.82;97487.31;5010525;28;20120;-75
2022/07/31 00:17:07;;;;;;;2.08;1.70;;;;;;;22.81;40.34;97487.34;4994232;28;20454;-75
2022/07/31 00:19:32;;;;;;;2.20;1.75;;;;;;;22.68;40.40;97483.00;4994643;28;20037;-75
2022/07/31 00:21:58;;;;;;;2.05;1.67;;;;;;;22.59;40.62;97483.78;5010831;28;20108;-75
2022/07/31 00:24:23;;;;;;;1.67;1.48;;;;;;;22.53;40.28;97479.75;5011408;28;20084;-75
2022/07/31 00:26:49;;;;;;;5.82;1.83;;;;;;;22.52;39.91;97483.50;5010857;28;20037;-75
2022/07/31 00:29:15;;;;;;;1.63;1.25;;;;;;;22.48;39.46;97484.44;5010633;28;20546;-75
2022/07/31 00:31:40;;;;;;;2.75;1.98;;;;;;;22.43;39.80;97483.50;4994416;28;20476;-75
2022/07/31 00:34:06;;;;;;;1.50;1.40;;;;;;;22.33;40.07;97475.88;5009803;28;20036;-75
2022/07/31 00:36:31;;;;;;;2.15;1.42;;;;;;;22.24;40.61;97486.47;4994032;28;20026;-75
2022/07/31 00:38:57;;;;;;;1.88;1.58;;;;;;;22.17;40.94;97480.84;5010278;28;20039;-75
2022/07/31 00:41:23;;;;;;;2.28;1.70;;;;;;;22.13;41.50;97479.91;5026813;28;20036;-75
2022/07/31 00:43:48;;;;;;;2.08;1.67;;;;;;;22.07;41.72;97483.78;5006180;28;20057;-75
2022/07/31 00:46:13;;;;;;;3.78;2.10;;;;;;;21.97;42.00;97486.75;4974348;28;20101;-75
2022/07/31 00:48:39;;;;;;;2.55;1.58;;;;;;;21.94;41.49;97480.22;4991704;28;20062;-75
2022/07/31 00:51:04;;;;;;;3.70;2.00;;;;;;;21.88;41.73;97481.44;4990423;28;20037;-75
2022/07/31 00:53:29;;;;;;;2.35;1.65;;;;;;;21.85;41.61;97476.78;4990545;28;20486;-75
2022/07/31 00:55:56;;;;;;;1.70;1.60;;;;;;;21.84;41.63;97469.91;4991348;28;20034;-75
2022/07/31 00:58:21;;;;;;;2.60;1.92;;;;;;;21.77;41.68;97474.91;4990776;28;20106;-75
2022/07/31 01:00:47;;;;;;;1.90;1.63;;;;;;;21.65;42.42;97476.28;5006980;28;20138;-75
2022/07/31 01:03:13;;;;;;;2.67;1.73;;;;;;;21.61;42.71;97475.34;5006780;28;20034;-75
2022/07/31 01:05:38;;;;;;;2.35;1.75;;;;;;;21.54;42.57;97479.50;4989834;28;20048;-75
2022/07/31 01:08:04;;;;;;;2.10;1.90;;;;;;;21.44;43.69;97470.75;4990217;28;20165;-75
2022/07/31 01:10:55;;;;;;;2.47;2.00;;;;;;;21.17;44.43;97478.91;5006305;28;20270;-75
2022/07/31 01:13:26;;;;;;;2.38;1.65;;;;;;;21.22;44.67;97474.25;4973453;28;20042;-75
2022/07/31 01:15:53;;;;;;;1.80;1.70;;;;;;;21.24;44.52;97479.25;5006029;28;20030;-75
2022/07/31 01:18:19;;;;;;;3.38;2.00;;;;;;;21.24;43.93;97473.97;4973726;28;20034;-75
2022/07/31 01:20:46;;;;;;;2.92;1.90;;;;;;;21.20;44.14;97465.03;5006411;28;20101;-75
2022/07/31 01:23:17;;;;;;;1.70;1.52;;;;;;;21.14;44.26;97467.06;5006471;28;20036;-75
2022/07/31 01:26:03;;;;;;;2.20;1.90;;;;;;;21.11;45.32;97462.38;5005665;28;20038;-75
2022/07/31 01:28:49;;;;;;;2.45;1.98;;;;;;;21.05;45.45;97459.09;4991093;28;20038;-75
2022/07/31 01:31:17;;;;;;;2.53;1.80;;;;;;;21.14;44.88;97456.47;4990872;28;20089;-75
2022/07/31 01:33:51;;;;;;;1.90;1.50;;;;;;;21.09;45.30;97454.72;4991185;28;20062;-75
2022/07/31 01:36:20;;;;;;;2.40;1.83;;;;;;;21.15;45.02;97458.03;5005993;28;20144;-75
2022/07/31 01:38:50;;;;;;;2.33;1.70;;;;;;;21.13;44.88;97453.03;4989589;28;20130;-75
2022/07/31 01:41:17;;;;;;;1.58;1.48;;;;;;;21.16;45.00;97448.22;4990824;28;20065;-75
2022/07/31 01:43:45;;;;;;;1.85;1.63;;;;;;;21.15;45.26;97455.38;4973109;28;20426;-75
2022/07/31 01:46:14;;;;;;;2.08;1.88;;;;;;;21.08;45.38;97455.06;5005768;28;20470;-75
2022/07/31 01:48:40;;;;;;;3.03;2.08;;;;;;;21.07;45.46;97456.91;5004952;28;20247;-75
2022/07/31 01:51:07;;;;;;;1.92;1.48;;;;;;;21.04;45.20;97452.25;5005907;28;20050;-75
2022/07/31 01:53:35;;;;;;;3.90;1.92;;;;;;;21.01;45.42;97450.19;5005109;28;20394;-75
2022/07/31 01:56:01;;;;;;;3.08;2.00;;;;;;;21.05;45.25;97455.66;4988840;28;20057;-75
2022/07/31 01:58:27;;;;;;;3.08;1.73;;;;;;;21.07;45.28;97454.25;5005647;28;20457;-75
2022/07/31 02:00:54;;;;;;;3.13;2.00;;;;;;;21.05;45.42;97451.13;4989211;28;20405;-75
2022/07/31 02:03:21;;;;;;;2.10;1.67;;;;;;;20.97;45.70;97451.88;4989108;28;20486;-75
2022/07/31 02:05:46;;;;;;;3.50;1.92;;;;;;;20.95;46.20;97454.81;5005198;28;20088;-75
2022/07/31 02:08:13;;;;;;;2.15;1.88;;;;;;;20.85;46.61;97443.72;4989323;28;20474;-75
2022/07/31 02:10:39;;;;;;;2.60;1.90;;;;;;;20.87;46.52;97452.94;4988930;28;20034;-75
2022/07/31 02:13:05;;;;;;;1.90;1.70;;;;;;;20.87;46.75;97447.66;5005526;28;20398;-75
2022/07/31 02:15:31;;;;;;;2.67;2.08;;;;;;;20.92;46.61;97438.78;5004983;28;20042;-75
2022/07/31 02:17:57;;;;;;;2.03;1.77;;;;;;;20.94;46.53;97436.63;5005146;28;20041;-75
2022/07/31 02:20:24;;;;;;;2.55;1.63;;;;;;;20.93;46.55;97440.34;5005564;28;20035;-75
2022/07/31 02:22:49;;;;;;;2.40;2.03;;;;;;;20.90;46.73;97433.78;4972407;28;20026;-75
2022/07/31 02:25:15;;;;;;;2.88;1.77;;;;;;;20.90;46.70;97444.38;4972028;28;20026;-75
2022/07/31 02:27:41;;;;;;;3.08;1.70;;;;;;;20.87;46.96;97441.56;5005153;28;20038;-75
2022/07/31 02:30:07;;;;;;;3.22;2.00;;;;;;;20.87;47.32;97434.41;5005213;28;20085;-75
2022/07/31 02:32:33;;;;;;;1.95;1.80;;;;;;;20.90;47.14;97435.66;4988858;28;20430;-75
2022/07/31 02:35:00;;;;;;;2.95;1.75;;;;;;;20.89;47.02;97434.13;4988215;28;20026;-75
2022/07/31 02:37:27;;;;;;;2.65;2.00;;;;;;;20.88;47.48;97427.25;5005060;28;20026;-75
2022/07/31 02:39:53;;;;;;;2.20;2.00;;;;;;;20.84;47.89;97426.31;5004799;28;20080;-75
2022/07/31 02:42:20;;;;;;;2.05;1.77;;;;;;;20.82;47.14;97423.97;4987082;28;20029;-75
2022/07/31 02:44:46;;;;;;;2.53;2.00;;;;;;;20.82;47.29;97423.97;4987193;28;20378;-75
2022/07/31 02:47:11;;;;;;;1.98;1.73;;;;;;;20.86;47.41;97424.13;4987732;28;20031;-75
2022/07/31 02:49:37;;;;;;;3.25;1.90;;;;;;;20.82;47.36;97423.97;5004109;28;20501;-75
2022/07/31 02:52:03;;;;;;;2.33;1.77;;;;;;;20.81;46.84;97425.03;4979032;28;20502;-75
2022/07/31 02:54:29;;;;;;;1.98;1.85;;;;;;;20.86;47.14;97424.13;5007725;28;20554;-75
2022/07/31 02:56:55;;;;;;;2.65;1.80;;;;;;;20.85;47.20;97419.91;5007910;28;20033;-75
2022/07/31 02:59:23;;;;;;;2.00;1.77;;;;;;;20.84;47.66;97423.66;5008144;28;20087;-75
2022/07/31 03:01:48;;;;;;;2.22;2.03;;;;;;;20.83;47.78;97422.09;5009669;28;20030;-75
2022/07/31 03:04:14;;;;;;;2.53;1.90;;;;;;;20.79;47.38;97419.28;5008574;28;20529;-75
2022/07/31 03:06:39;;;;;;;3.35;1.92;;;;;;;20.81;47.29;97425.03;5008249;28;20037;-75
2022/07/31 03:09:05;;;;;;;2.63;1.77;;;;;;;20.81;46.97;97424.28;5011777;28;20100;-75
2022/07/31 03:11:30;;;;;;;2.47;1.83;;;;;;;20.82;46.56;97417.88;5012161;28;20034;-75
2022/07/31 03:13:57;;;;;;;2.45;2.17;;;;;;;20.78;46.89;97415.06;5011588;28;20517;-75
2022/07/31 03:16:23;;;;;;;3.35;2.10;;;;;;;20.82;47.43;97415.22;5011879;28;20041;-75
2022/07/31 03:18:48;;;;;;;2.30;1.80;;;;;;;20.83;47.08;97414.16;5011676;28;20389;-75
2022/07/31 03:21:14;;;;;;;3.17;1.65;;;;;;;20.88;46.53;97421.97;5012022;28;20045;-75
2022/07/31 03:23:39;;;;;;;2.63;1.75;;;;;;;20.88;46.81;97422.72;5011344;28;20464;-75
2022/07/31 03:26:05;;;;;;;3.33;1.80;;;;;;;20.94;46.67;97421.53;5011570;28;20069;-75
2022/07/31 03:28:35;;;;;;;2.55;1.58;;;;;;;20.90;46.64;97419.78;5011768;28;20040;-75
2022/07/31 03:31:00;;;;;;;3.63;2.08;;;;;;;20.92;46.85;97414.97;5011581;28;20034;-75
2022/07/31 03:33:26;;;;;;;3.05;1.73;;;;;;;20.85;47.00;97412.75;5011303;28;20045;-75
2022/07/31 03:35:52;;;;;;;3.40;1.95;;;;;;;20.78;47.26;97412.41;5011441;28;20513;-75
2022/07/31 03:38:17;;;;;;;2.38;2.17;;;;;;;20.69;47.60;97415.03;4995557;28;20448;-75
2022/07/31 03:40:43;;;;;;;3.00;2.20;;;;;;;20.57;47.73;97407.63;5011465;28;20057;-75
2022/07/31 03:43:09;;;;;;;2.03;1.83;;;;;;;20.48;47.77;97413.97;4994841;28;20057;-75
2022/07/31 03:45:35;;;;;;;2.40;2.20;;;;;;;20.45;47.92;97412.69;5007692;28;20045;-75
2022/07/31 03:48:01;;;;;;;2.13;1.88;;;;;;;20.37;48.08;97411.56;4975111;28;20371;-75
2022/07/31 03:50:27;;;;;;;2.20;2.00;;;;;;;20.43;47.83;97406.16;4991648;28;20030;-75
2022/07/31 03:52:53;;;;;;;2.22;2.03;;;;;;;20.39;48.16;97411.25;4975466;28;20030;-75
2022/07/31 03:55:18;;;;;;;3.55;2.20;;;;;;;20.38;48.45;97412.34;4975081;28;20096;-75
2022/07/31 03:57:44;;;;;;;2.88;2.17;;;;;;;20.35;48.68;97412.94;4991776;28;20522;-75
2022/07/31 04:00:10;;;;;;;2.30;2.10;;;;;;;20.35;48.57;97418.22;4991815;28;20065;-75
2022/07/31 04:02:36;;;;;;;2.20;2.00;;;;;;;20.34;48.68;97414.81;4975601;28;20034;-75
2022/07/31 04:05:02;;;;;;;2.35;2.15;;;;;;;20.35;48.46;97412.94;4990860;28;20040;-75
2022/07/31 04:07:27;;;;;;;1.90;1.80;;;;;;;20.33;48.54;97415.09;4991416;28;20041;-75
2022/07/31 04:09:52;;;;;;;2.40;2.10;;;;;;;20.35;48.94;97420.88;4991683;28;20034;-75
2022/07/31 04:12:18;;;;;;;2.20;2.00;;;;;;;20.37;49.23;97418.69;4991596;28;20030;-75
2022/07/31 04:14:43;;;;;;;2.58;1.90;;;;;;;20.46;49.33;97416.09;4991160;28;20031;-75
2022/07/31 04:17:09;;;;;;;2.55;1.98;;;;;;;20.51;49.63;97408.03;4990974;28;20037;-75
2022/07/31 04:19:34;;;;;;;2.72;2.03;;;;;;;20.55;49.53;97409.03;4990510;28;20057;-75
2022/07/31 04:22:00;;;;;;;2.70;2.38;;;;;;;20.60;48.94;97406.25;4991228;28;20085;-75
2022/07/31 04:24:26;;;;;;;2.33;2.10;;;;;;;20.62;48.37;97409.38;4990742;28;20065;-75
2022/07/31 04:26:53;;;;;;;1.85;1.75;;;;;;;20.56;48.10;97416.66;4992173;28;20572;-75
2022/07/31 04:29:19;;;;;;;3.30;1.85;;;;;;;20.67;47.94;97416.44;4991031;28;20125;-75
2022/07/31 04:31:45;;;;;;;2.10;1.90;;;;;;;20.71;48.45;97417.38;4992275;28;20438;-75
2022/07/31 04:34:10;;;;;;;2.08;1.88;;;;;;;20.70;48.08;97408.66;4990626;28;20026;-75
2022/07/31 04:36:36;;;;;;;2.05;1.85;;;;;;;20.70;48.05;97402.56;4990991;28;20109;-75
2022/07/31 04:39:03;;;;;;;1.95;1.75;;;;;;;20.72;47.75;97406.47;4974437;28;20079;-75
2022/07/31 04:41:28;;;;;;;1.98;1.83;;;;;;;20.74;47.82;97412.25;4991127;28;20520;-75
2022/07/31 04:43:54;;;;;;;2.33;1.88;;;;;;;20.81;47.96;97416.31;4990833;28;20122;-75
2022/07/31 04:46:20;;;;;;;2.10;1.92;;;;;;;20.87;48.05;97423.03;4974476;28;20029;-75
2022/07/31 04:48:45;;;;;;;3.03;2.20;;;;;;;20.95;48.14;97430.22;4990313;28;20437;-74
2022/07/31 04:51:23;;;;;;;2.30;2.08;;;;;;;20.89;48.85;97419.00;5007130;28;20073;-74
2022/07/31 04:53:49;;;;;;;2.72;2.20;;;;;;;21.07;48.12;97413.78;4958087;28;20027;-74
2022/07/31 04:59:05;;;;;;;2.42;2.17;;;;;;;20.99;48.02;97423.25;4990542;28;20666;-74
2022/07/31 05:01:31;;;;;;;3.42;1.92;;;;;;;21.06;47.73;97426.25;4989052;28;20141;-75
2022/07/31 05:03:57;;;;;;;2.20;2.00;;;;;;;21.04;47.54;97423.13;4972679;28;20549;-74
2022/07/31 05:06:32;;;;;;;2.22;2.03;;;;;;;20.92;47.67;97423.69;4989226;28;20038;-75
2022/07/31 05:08:57;;;;;;;;;;;;;;;20.84;48.14;97423.66;4973400;28;20446;-75
2022/07/31 05:11:22;;;;;;;2.50;1.67;;;;;;;21.05;47.78;97429.97;5005416;28;19960;-74
2022/07/31 05:13:55;;;;;;;2.67;2.05;;;;;;;20.98;47.89;97432.28;4956229;28;20030;-75
2022/07/31 05:16:22;;;;;;;3.22;1.98;;;;;;;21.09;48.29;97432.78;4956700;28;20034;-75
2022/07/31 05:18:48;;;;;;;2.10;1.90;;;;;;;21.14;48.21;97430.75;4988717;28;20034;-74
2022/07/31 05:21:14;;;;;;;1.83;1.73;;;;;;;21.23;47.85;97432.66;4973109;28;20373;-74
2022/07/31 05:23:41;;;;;;;3.22;2.28;;;;;;;21.33;48.94;97429.72;4988566;28;20034;-74
2022/07/31 05:26:07;;;;;;;2.58;2.15;;;;;;;21.45;48.12;97429.91;4989902;28;20113;-74
2022/07/31 05:28:32;;;;;;;2.10;1.90;;;;;;;21.57;47.42;97431.22;4957022;28;20169;-74
2022/07/31 05:30:58;;;;;;;2.08;1.83;;;;;;;21.66;46.48;97439.94;4987676;28;20046;-74
2022/07/31 05:33:23;;;;;;;2.15;1.88;;;;;;;21.80;44.98;97432.66;4988348;28;20034;-74
2022/07/31 05:35:49;;;;;;;2.35;1.65;;;;;;;21.94;44.81;97434.38;4988745;28;20026;-74
2022/07/31 05:38:14;;;;;;;3.53;2.47;;;;;;;22.03;44.54;97427.19;4972706;28;20587;-75
2022/07/31 05:40:39;;;;;;;1.60;1.50;;;;;;;22.11;43.80;97431.72;4988816;28;20343;-74
2022/07/31 05:43:05;;;;;;;1.98;1.60;;;;;;;22.20;43.97;97423.75;4979283;28;20042;-74
2022/07/31 05:45:31;;;;;;;1.75;1.45;;;;;;;22.25;43.21;97424.34;4990568;28;20490;-75
2022/07/31 05:47:56;;;;;;;2.50;1.75;;;;;;;22.33;43.26;97422.03;4990328;28;20042;-75
2022/07/31 05:50:22;;;;;;;1.70;1.60;;;;;;;22.39;43.35;97424.19;4989355;28;20069;-74
2022/07/31 05:52:48;;;;;;;2.30;1.50;;;;;;;22.47;42.33;97430.59;4989468;28;20396;-75
2022/07/31 05:55:14;;;;;;;2.05;1.70;;;;;;;22.58;42.59;97423.84;4990344;28;20371;-75
2022/07/31 05:57:39;;;;;;;2.20;1.38;;;;;;;22.66;42.15;97421.50;4989556;28;20518;-75
2022/07/31 06:00:06;;;;;;;1.80;1.70;;;;;;;22.77;42.14;97420.03;4989213;28;20109;-75
2022/07/31 06:02:31;;;;;;;1.60;1.50;;;;;;;22.90;42.29;97418.28;4989652;28;20043;-75
2022/07/31 06:04:57;;;;;;;1.83;1.38;;;;;;;23.00;41.90;97416.06;4988634;28;20030;-75
2022/07/31 06:07:22;;;;;;;1.70;1.60;;;;;;;23.15;41.50;97416.63;4989170;28;20085;-74
2022/07/31 06:09:47;;;;;;;1.75;1.42;;;;;;;23.29;40.65;97425.16;4990222;28;20544;-74
2022/07/31 06:12:13;;;;;;;1.48;1.33;;;;;;;23.40;40.24;97420.25;5005563;28;20026;-75
2022/07/31 06:14:38;;;;;;;2.17;1.40;;;;;;;23.51;40.08;97428.59;4988721;28;20066;-75
2022/07/31 06:17:04;;;;;;;1.83;1.65;;;;;;;23.55;40.22;97424.22;4989099;28;20039;-74
2022/07/31 06:19:31;;;;;;;2.05;1.52;;;;;;;23.64;39.89;97422.28;4988964;28;20038;-74
2022/07/31 06:21:59;;;;;;;2.88;1.40;;;;;;;23.78;39.52;97427.34;4989071;28;20446;-74
2022/07/31 06:24:24;;;;;;;2.58;1.83;;;;;;;23.82;39.82;97433.59;4988465;28;20046;-75
2022/07/31 06:26:50;;;;;;;2.47;1.55;;;;;;;23.95;39.51;97431.78;4972352;28;20033;-74
2022/07/31 06:29:16;;;;;;;16.63;2.90;;;;;;;24.00;39.59;97433.47;4988960;28;20038;-74
2022/07/31 06:31:41;;;;;;;6.80;1.60;;;;;;;24.12;39.39;97433.50;4989014;28;20041;-74
2022/07/31 06:34:07;;;;;;;2.72;1.55;;;;;;;24.21;38.52;97438.75;4988371;28;20029;-74
2022/07/31 06:36:32;;;;;;;6.97;1.80;;;;;;;24.30;38.91;97431.47;4989061;28;20069;-74
2022/07/31 06:38:58;;;;;;;4.07;2.03;;;;;;;24.40;38.56;97441.72;4988501;28;20064;-74
2022/07/31 06:44:07;;;;;;;3.90;2.05;;;;;;;24.73;37.66;97438.25;4988114;28;20117;-74
2022/07/31 06:46:32;;;;;;;1.95;1.40;;;;;;;24.89;38.26;97434.94;5004764;28;20518;-74
2022/07/31 06:48:58;;;;;;;1.73;1.27;;;;;;;25.03;37.08;97430.84;4988315;28;20030;-74
2022/07/31 06:51:23;;;;;;;1.67;1.58;;;;;;;25.14;37.22;97436.53;5004866;28;20026;-74
2022/07/31 06:53:49;;;;;;;1.88;1.77;;;;;;;25.26;36.61;97440.31;5004770;28;20032;-74
2022/07/31 06:56:14;;;;;;;1.92;1.60;;;;;;;25.27;36.64;97437.31;4988414;28;20478;-74
2022/07/31 06:58:39;;;;;;;1.67;1.58;;;;;;;25.31;37.08;97446.22;5005232;28;20407;-74
2022/07/31 07:01:05;;;;;;;3.97;1.35;;;;;;;25.36;37.03;97439.84;4989449;28;20104;-74
2022/07/31 07:03:30;;;;;;;2.25;1.30;;;;;;;25.46;37.14;97447.41;4989094;28;20106;-74
2022/07/31 07:05:55;;;;;;;1.73;1.60;;;;;;;25.48;36.79;97441.72;4989683;28;20121;-74
2022/07/31 07:08:21;;;;;;;1.95;1.65;;;;;;;25.46;36.91;97441.28;5004829;28;20426;-74
2022/07/31 07:10:46;;;;;;;1.95;1.48;;;;;;;25.41;37.00;97434.28;5004638;28;20038;-74
2022/07/31 07:13:11;;;;;;;2.90;1.70;;;;;;;25.43;37.23;97437.44;4971594;28;20478;-74
2022/07/31 07:15:37;;;;;;;2.33;1.83;;;;;;;25.45;37.36;97435.19;4988237;28;20451;-74
2022/07/31 07:18:02;;;;;;;1.85;1.55;;;;;;;25.44;37.15;97427.53;5004158;28;20561;-74
2022/07/31 07:20:28;;;;;;;2.85;1.77;;;;;;;25.42;37.15;97430.53;4989522;28;20050;-74
2022/07/31 07:22:53;;;;;;;2.17;1.45;;;;;;;25.44;37.66;97432.88;4988250;28;20054;-74
2022/07/31 07:25:19;;;;;;;1.83;1.70;;;;;;;25.58;36.99;97431.41;4987442;28;20470;-74
2022/07/31 07:27:45;;;;;;;1.60;1.50;;;;;;;25.67;37.23;97433.13;4989699;28;20034;-74
2022/07/31 07:30:11;;;;;;;2.92;1.80;;;;;;;25.83;36.89;97435.91;4989390;28;20038;-74
2022/07/31 07:32:36;;;;;;;2.70;1.70;;;;;;;26.12;36.25;97429.47;4989559;28;20038;-74
2022/07/31 07:35:02;;;;;;;2.78;1.90;;;;;;;26.55;35.39;97430.59;5004115;28;20461;-74
2022/07/31 07:37:28;;;;;;;2.20;1.77;;;;;;;27.04;34.19;97432.16;4988017;28;20034;-74
2022/07/31 07:39:57;;;;;;;1.60;1.50;;;;;;;27.38;33.79;97416.53;4988550;28;20030;-74
2022/07/31 07:42:22;;;;;;;4.78;2.33;;;;;;;27.61;33.23;97420.09;4987983;28;20398;-74
2022/07/31 07:44:48;;;;;;;1.95;1.33;;;;;;;27.84;33.52;97414.06;4987873;28;20030;-74
2022/07/31 07:47:13;;;;;;;2.45;1.85;;;;;;;27.94;32.93;97418.88;4987886;28;20034;-75
2022/07/31 07:49:39;;;;;;;2.88;1.70;;;;;;;28.10;32.18;97418.03;4987947;28;20077;-74
2022/07/31 07:52:04;;;;;;;2.25;1.60;;;;;;;27.91;31.99;97413.44;4989555;28;20057;-75
2022/07/31 07:54:29;;;;;;;2.67;1.70;;;;;;;28.02;32.18;97409.88;4988542;28;20076;-75
2022/07/31 07:56:55;;;;;;;2.20;1.58;;;;;;;27.99;32.45;97404.44;4991559;28;20030;-75
2022/07/31 07:59:20;;;;;;;1.52;1.42;;;;;;;28.16;31.86;97411.25;4991355;28;20536;-75
2022/07/31 08:01:46;;;;;;;3.88;1.88;;;;;;;28.39;31.99;97408.59;4991620;28;20042;-75
2022/07/31 08:04:11;;;;;;;2.60;1.70;;;;;;;28.71;31.52;97392.34;4990798;28;20042;-75
2022/07/31 08:06:37;;;;;;;2.53;1.90;;;;;;;29.14;30.68;97395.66;4975307;28;20549;-75
2022/07/31 08:09:02;;;;;;;2.40;1.90;;;;;;;29.43;30.15;97398.75;5007570;28;20030;-75
2022/07/31 08:11:28;;;;;;;1.73;1.63;;;;;;;29.79;29.35;97391.19;4991346;28;20069;-75
2022/07/31 08:13:54;;;;;;;2.22;1.52;;;;;;;29.97;28.70;97399.41;4991068;28;20382;-76
2022/07/31 08:16:20;;;;;;;2.20;1.73;;;;;;;30.10;28.83;97395.34;4974851;28;20026;-75
2022/07/31 08:18:46;;;;;;;2.15;1.42;;;;;;;30.14;29.43;97395.38;4991446;28;20058;-75
2022/07/31 08:21:11;;;;;;;2.10;1.85;;;;;;;30.12;28.76;97394.97;4991108;28;20395;-75
2022/07/31 08:23:36;;;;;;;1.30;1.20;;;;;;;30.25;29.36;97388.97;4991807;28;20035;-75
2022/07/31 08:26:03;;;;;;;2.78;1.48;;;;;;;30.34;28.93;97391.34;4991125;28;20030;-75
2022/07/31 08:28:28;;;;;;;2.13;1.40;;;;;;;30.40;28.86;97400.66;4991183;28;20030;-75
2022/07/31 08:30:54;;;;;;;2.15;1.70;;;;;;;30.31;29.11;97385.97;4974951;28;20032;-75
2022/07/31 08:33:19;;;;;;;2.40;1.70;;;;;;;30.50;28.52;97393.81;4991641;28;20335;-75
2022/07/31 08:35:45;;;;;;;1.88;1.52;;;;;;;30.67;28.36;97391.66;4991059;28;20034;-75
2022/07/31 08:38:11;;;;;;;2.13;1.90;;;;;;;30.90;28.50;97394.16;4992175;28;20034;-75
2022/07/31 08:40:37;;;;;;;1.90;1.80;;;;;;;31.13;28.02;97391.25;4990737;28;20093;-76
2022/07/31 08:43:03;;;;;;;1.70;1.50;;;;;;;31.27;27.74;97390.56;4974165;28;20030;-76
2022/07/31 08:45:29;;;;;;;1.77;1.50;;;;;;;31.43;27.52;97384.88;5004152;28;20478;-76
2022/07/31 08:47:56;;;;;;;1.60;1.50;;;;;;;31.36;27.63;97383.69;5006871;28;20121;-76
2022/07/31 08:50:22;;;;;;;1.83;1.73;;;;;;;31.34;27.65;97385.22;5006481;28;20034;-76
2022/07/31 08:52:48;;;;;;;2.03;1.33;;;;;;;31.20;28.54;97382.47;5006920;28;20413;-75
2022/07/31 08:55:14;;;;;;;1.83;1.73;;;;;;;30.85;27.99;97384.53;5006977;28;20034;-76
2022/07/31 08:57:40;;;;;;;1.52;1.42;;;;;;;30.89;28.29;97387.22;5007189;28;20321;-76
2022/07/31 09:00:08;;;;;;;1.70;1.60;;;;;;;30.68;28.24;97379.78;5006794;28;20065;-75
2022/07/31 09:02:33;;;;;;;1.67;1.58;;;;;;;30.69;28.64;97378.63;4974460;28;20049;-75
2022/07/31 09:04:59;;;;;;;1.77;1.20;;;;;;;30.72;29.06;97378.66;4989640;28;20118;-75
2022/07/31 09:07:24;;;;;;;1.42;1.33;;;;;;;30.86;28.86;97374.53;4991603;28;20042;-76
2022/07/31 09:09:50;;;;;;;2.67;1.67;;;;;;;30.90;28.96;97369.97;5006826;28;20089;-75
2022/07/31 09:12:26;;;;;;;2.60;1.65;;;;;;;31.02;28.46;97376.97;4991435;28;20137;-76
2022/07/31 09:14:51;;;;;;;1.42;1.30;;;;;;;31.23;28.40;97377.09;5006450;28;20069;-75
2022/07/31 09:17:28;;;;;;;2.80;1.73;;;;;;;31.55;29.01;97377.28;5006137;28;20454;-76
2022/07/31 09:19:54;;;;;;;2.13;1.55;;;;;;;31.82;28.40;97368.91;5006413;28;20275;-75
2022/07/31 09:22:24;;;;;;;7.85;1.85;;;;;;;32.01;26.82;97369.72;5006445;28;20034;-76
2022/07/31 09:24:50;;;;;;;3.50;1.90;;;;;;;32.41;26.34;97367.88;5005791;28;20089;-75
2022/07/31 09:27:16;;;;;;;2.05;1.83;;;;;;;32.41;25.92;97367.88;4990032;28;20027;-76
2022/07/31 09:29:44;;;;;;;2.03;1.58;;;;;;;32.64;26.76;97365.59;5006305;28;20707;-76
2022/07/31 09:32:15;;;;;;;1.70;1.60;;;;;;;32.96;26.20;97364.03;4990146;28;20505;-76
2022/07/31 09:34:41;;;;;;;1.67;1.58;;;;;;;33.44;26.12;97355.44;5005827;28;20108;-76
2022/07/31 09:37:27;;;;;;;1.63;1.52;;;;;;;33.34;25.49;97356.25;4989602;28;20497;-75
2022/07/31 09:39:54;;;;;;;3.40;1.42;;;;;;;33.16;25.38;97356.28;4989643;28;20070;-75
2022/07/31 09:42:21;;;;;;;1.83;1.73;;;;;;;33.33;24.67;97350.09;4989620;28;20517;-76
2022/07/31 09:44:48;;;;;;;1.58;1.40;;;;;;;33.33;24.62;97360.88;5005551;28;20046;-76
2022/07/31 09:47:25;;;;;;;1.77;1.67;;;;;;;33.37;24.51;97353.53;5005692;28;20133;-75
2022/07/31 09:49:58;;;;;;;1.65;1.55;;;;;;;33.21;25.47;97353.19;4989600;28;20045;-75
2022/07/31 09:52:25;;;;;;;2.35;1.65;;;;;;;33.44;25.02;97339.22;5005584;28;20026;-76
2022/07/31 09:55:03;;;;;;;1.55;1.45;;;;;;;33.48;24.45;97341.91;5005311;28;20417;-75
2022/07/31 09:57:28;;;;;;;2.00;1.90;;;;;;;33.82;24.14;97350.25;5005599;28;20038;-76
2022/07/31 09:59:54;;;;;;;1.65;1.55;;;;;;;33.67;24.24;97341.47;4990624;28;20061;-75
2022/07/31 10:02:20;;;;;;;2.05;1.30;;;;;;;33.66;25.00;97342.59;5005765;28;20041;-76
2022/07/31 10:04:46;;;;;;;2.70;1.88;;;;;;;33.78;25.30;97344.88;4988587;28;20125;-76
2022/07/31 10:07:12;;;;;;;1.90;1.80;;;;;;;34.18;24.34;97341.94;5005608;28;20053;-75
2022/07/31 10:09:39;;;;;;;1.80;1.70;;;;;;;34.43;24.07;97344.47;5005432;28;20037;-75
2022/07/31 10:12:06;;;;;;;1.83;1.73;;;;;;;34.15;24.82;97337.31;4989167;28;20125;-75
2022/07/31 10:14:34;;;;;;;1.95;1.80;;;;;;;33.88;23.90;97343.28;4988805;28;20023;-76
2022/07/31 10:17:03;;;;;;;1.60;1.50;;;;;;;33.73;24.11;97337.19;5004798;28;20072;-75
2022/07/31 10:19:34;;;;;;;2.03;1.92;;;;;;;33.85;24.67;97335.22;4990158;28;20038;-75
2022/07/31 10:22:03;;;;;;;2.22;1.83;;;;;;;34.22;24.90;97336.53;4988616;28;20038;-75
2022/07/31 10:24:32;;;;;;;3.75;1.95;;;;;;;34.06;24.09;97335.06;4988560;28;20029;-75
2022/07/31 10:26:58;;;;;;;2.05;1.95;;;;;;;34.02;23.42;97339.72;4988692;28;20034;-75
2022/07/31 10:29:25;;;;;;;2.60;2.40;;;;;;;34.48;23.97;97327.81;4956647;28;20026;-75
2022/07/31 10:31:51;;;;;;;3.03;1.90;;;;;;;34.72;23.22;97322.63;4989996;28;20096;-75
2022/07/31 10:34:16;;;;;;;2.13;2.03;;;;;;;34.67;23.79;97328.44;5004638;28;20038;-76
2022/07/31 10:36:44;;;;;;;2.13;1.92;;;;;;;34.88;22.92;97322.06;5005114;28;20394;-75
2022/07/31 10:39:17;;;;;;;2.75;2.28;;;;;;;34.66;22.89;97333.06;4988652;28;20513;-76
2022/07/31 10:42:23;;;;;;;2.00;1.80;;;;;;;34.73;23.03;97324.13;4989026;28;20501;-76
2022/07/31 10:45:12;;;;;;;1.88;1.75;;;;;;;34.55;23.54;97310.78;4976711;28;20070;-75
2022/07/31 10:47:38;;;;;;;2.58;1.90;;;;;;;34.70;23.84;97308.69;4988341;28;20030;-75
2022/07/31 10:50:04;;;;;;;2.00;1.90;;;;;;;34.86;23.56;97308.19;4971969;28;20037;-75
2022/07/31 10:52:36;;;;;;;2.22;2.08;;;;;;;35.12;23.04;97298.59;5004760;28;20031;-75
2022/07/31 10:55:17;;;;;;;2.75;2.13;;;;;;;34.91;23.02;97290.72;5004573;28;20023;-75
2022/07/31 10:57:42;;;;;;;2.47;2.28;;;;;;;34.72;23.45;97300.19;4972590;28;20083;-76
2022/07/31 11:00:12;;;;;;;2.85;2.55;;;;;;;34.85;23.24;97295.81;4988327;28;20030;-76
2022/07/31 11:02:38;;;;;;;1.88;1.77;;;;;;;34.91;23.33;97285.31;4988203;28;20478;-75
2022/07/31 11:05:07;;;;;;;2.15;2.00;;;;;;;35.26;22.81;97297.69;5004688;28;20153;-75
2022/07/31 11:07:33;;;;;;;2.67;1.90;;;;;;;35.25;23.60;97291.50;5004516;28;20038;-75
2022/07/31 11:10:17;;;;;;;2.00;1.90;;;;;;;35.33;23.09;97296.84;5004654;28;20041;-75
2022/07/31 11:12:43;;;;;;;2.70;2.30;;;;;;;35.54;22.64;97279.53;4971914;28;20498;-75
2022/07/31 11:15:22;;;;;;;2.65;2.28;;;;;;;35.88;22.05;97286.81;4988376;28;20030;-75
2022/07/31 11:17:48;;;;;;;2.17;1.98;;;;;;;35.69;21.83;97289.00;4987906;28;20030;-76
2022/07/31 11:20:25;;;;;;;2.50;2.30;;;;;;;35.11;23.06;97296.28;4972326;28;20423;-75
2022/07/31 11:23:14;;;;;;;2.30;2.15;;;;;;;34.62;23.53;97289.06;5004232;28;20481;-75
2022/07/31 11:25:40;;;;;;;2.63;2.03;;;;;;;34.61;22.72;97287.50;4988276;28;20409;-76
2022/07/31 11:28:12;;;;;;;2.03;1.85;;;;;;;34.19;23.41;97285.94;5004580;28;20038;-75
2022/07/31 11:30:50;;;;;;;1.90;1.73;;;;;;;34.27;23.08;97269.28;4992104;28;20486;-75
2022/07/31 11:33:27;;;;;;;2.10;1.92;;;;;;;34.13;23.32;97267.44;5007960;28;20035;-75
2022/07/31 11:35:53;;;;;;;2.30;2.03;;;;;;;34.25;23.61;97265.47;5008247;28;20030;-75
2022/07/31 11:38:18;;;;;;;2.55;1.88;;;;;;;34.39;23.08;97265.31;4993155;28;20045;-76